Time;durP1;ratioP1;P1;durP2;ratioP2;P2;SDS_P1;SDS_P2;PMS_P1;PMS_P2;Temp;Humidity;BMP_temperature;BMP_pressure;BME280_temperature;BME280_humidity;BME280_pressure;Samples;Min_cycle;Max_cycle;Signal;HPM_P1;HPM_P2
2023/10/26 00:00:29;;;;;;;22.48;8.52;;;;;;;16.65;74.69;98862.41;5089840;28;20032;-81
2023/10/26 00:02:54;;;;;;;20.45;7.97;;;;;;;16.81;74.77;98874.91;5088940;28;20421;-80
2023/10/26 00:05:20;;;;;;;32.15;9.20;;;;;;;16.73;74.99;98885.09;5090048;28;20495;-81
2023/10/26 00:07:46;;;;;;;17.48;7.65;;;;;;;16.50;75.04;98849.91;5090272;28;20409;-81
2023/10/26 00:10:12;;;;;;;26.17;7.85;;;;;;;16.65;75.08;98889.03;5090344;28;20032;-80
2023/10/26 00:12:37;;;;;;;27.00;10.13;;;;;;;16.61;74.45;98867.97;5088528;28;20590;-81
2023/10/26 00:15:03;;;;;;;18.80;9.05;;;;;;;16.76;72.65;98877.81;5087035;28;20029;-81
2023/10/26 00:17:28;;;;;;;21.45;10.40;;;;;;;16.39;73.74;98865.56;5072598;28;20039;-81
2023/10/26 00:19:54;;;;;;;18.90;7.85;;;;;;;16.27;74.14;98873.25;5074504;28;20040;-81
2023/10/26 00:22:21;;;;;;;21.90;7.80;;;;;;;16.20;73.80;98847.03;5074157;28;20036;-81
2023/10/26 00:24:47;;;;;;;19.90;7.53;;;;;;;16.25;73.84;98860.97;5075330;28;20029;-81
2023/10/26 00:27:13;;;;;;;20.75;7.88;;;;;;;16.17;74.12;98845.38;5074563;28;20039;-81
2023/10/26 00:29:40;;;;;;;25.02;7.32;;;;;;;16.25;74.87;98845.88;5074245;28;20441;-81
2023/10/26 00:32:06;;;;;;;16.92;8.35;;;;;;;16.17;75.41;98858.69;5073940;28;20035;-81
2023/10/26 00:34:33;;;;;;;21.80;8.90;;;;;;;16.22;75.31;98851.34;5075584;28;20418;-81
2023/10/26 00:36:58;;;;;;;15.13;8.05;;;;;;;16.21;75.44;98865.59;5074193;28;20089;-81
2023/10/26 00:39:24;;;;;;;20.90;7.95;;;;;;;16.19;75.45;98839.97;5073764;28;20032;-81
2023/10/26 00:41:53;;;;;;;24.73;9.27;;;;;;;16.24;75.30;98861.91;5083167;28;20035;-81
2023/10/26 00:44:20;;;;;;;22.25;8.73;;;;;;;16.10;75.22;98851.97;5087036;28;20044;-82
2023/10/26 00:46:47;;;;;;;23.38;7.35;;;;;;;16.31;74.84;98873.94;5073700;28;20029;-81
2023/10/26 00:49:15;;;;;;;17.17;8.57;;;;;;;16.06;74.73;98816.66;5073784;28;20105;-81
2023/10/26 00:51:44;;;;;;;19.48;8.73;;;;;;;16.11;74.79;98830.63;5073598;28;20036;-81
2023/10/26 00:54:10;;;;;;;12.05;7.55;;;;;;;16.19;74.68;98824.91;5071685;28;20024;-81
2023/10/26 00:56:37;;;;;;;19.85;8.30;;;;;;;16.17;74.16;98818.78;5074562;28;20109;-81
2023/10/26 00:59:03;;;;;;;25.83;8.98;;;;;;;15.95;74.43;98783.59;5080773;28;20101;-81
2023/10/26 01:01:30;;;;;;;18.80;7.78;;;;;;;15.96;75.20;98849.13;5073663;28;20020;-82
2023/10/26 01:03:56;;;;;;;20.20;7.95;;;;;;;15.91;76.10;98828.97;5073546;28;20050;-82
2023/10/26 01:06:22;;;;;;;16.23;7.55;;;;;;;15.93;77.07;98813.78;5077320;28;20122;-81
2023/10/26 01:08:48;;;;;;;15.25;7.35;;;;;;;15.88;76.88;98825.59;5073855;28;20028;-81
2023/10/26 01:11:14;;;;;;;17.95;7.63;;;;;;;15.83;77.53;98825.81;5073208;28;20395;-81
2023/10/26 01:13:41;;;;;;;15.48;7.65;;;;;;;15.85;77.83;98816.00;5073198;28;20028;-81
2023/10/26 01:16:07;;;;;;;11.18;7.13;;;;;;;15.96;77.34;98823.44;5073338;28;20538;-82
2023/10/26 01:18:32;;;;;;;20.02;9.35;;;;;;;15.90;77.15;98813.09;5074585;28;20031;-81
2023/10/26 01:20:58;;;;;;;19.85;8.48;;;;;;;15.92;76.75;98806.75;5072636;28;20058;-81
2023/10/26 01:23:23;;;;;;;20.25;9.45;;;;;;;15.99;76.58;98814.41;5079542;28;20055;-81
2023/10/26 01:25:53;;;;;;;17.95;9.20;;;;;;;15.98;76.66;98845.47;5087263;28;20037;-83
2023/10/26 01:28:18;;;;;;;19.85;9.43;;;;;;;15.96;76.00;98841.16;5072190;28;20071;-84
2023/10/26 01:30:44;;;;;;;15.10;7.25;;;;;;;15.70;75.56;98822.03;5074020;28;20056;-81
2023/10/26 01:33:09;;;;;;;30.02;10.35;;;;;;;15.74;75.66;98831.59;5073094;28;20029;-81
2023/10/26 01:35:44;;;;;;;21.45;8.40;;;;;;;15.46;75.80;98803.72;5072839;28;20025;-81
2023/10/26 01:38:09;;;;;;;23.67;8.35;;;;;;;15.47;75.98;98844.44;5073304;28;20113;-81
2023/10/26 01:40:35;;;;;;;26.20;8.55;;;;;;;15.43;76.15;98849.06;5072568;28;20471;-82
2023/10/26 01:43:00;;;;;;;14.25;8.18;;;;;;;15.62;76.00;98848.16;5073581;28;20410;-80
2023/10/26 01:45:26;;;;;;;18.33;9.88;;;;;;;15.25;76.87;98813.59;5072780;28;20031;-81
2023/10/26 01:47:54;;;;;;;19.13;8.20;;;;;;;15.35;76.54;98824.63;5083406;28;20140;-80
2023/10/26 01:50:20;;;;;;;30.40;8.50;;;;;;;15.57;76.04;98872.31;5092753;28;20444;-81
2023/10/26 01:52:45;;;;;;;21.58;8.23;;;;;;;15.36;76.42;98845.81;5092558;28;20028;-80
2023/10/26 01:55:10;;;;;;;14.40;8.60;;;;;;;15.20;76.98;98815.63;5059468;28;20491;-80
2023/10/26 01:57:36;;;;;;;24.17;8.93;;;;;;;15.47;77.22;98860.38;5052909;28;20120;-78
2023/10/26 02:00:02;;;;;;;14.93;7.07;;;;;;;15.68;76.60;98858.50;5052041;28;20063;-79
2023/10/26 02:02:28;;;;;;;16.85;8.23;;;;;;;15.48;76.78;98841.72;5052476;28;20107;-79
2023/10/26 02:04:54;;;;;;;25.65;8.65;;;;;;;15.63;76.64;98864.03;5052367;28;20024;-79
2023/10/26 02:07:20;;;;;;;18.25;9.48;;;;;;;15.61;76.62;98857.91;5052180;28;20571;-80
2023/10/26 02:09:46;;;;;;;19.25;9.00;;;;;;;15.51;76.34;98830.09;5070447;28;20139;-79
2023/10/26 02:12:11;;;;;;;18.02;7.18;;;;;;;15.46;76.24;98825.00;5072211;28;20040;-79
2023/10/26 02:14:37;;;;;;;20.52;8.23;;;;;;;15.65;76.53;98853.31;5087742;28;20067;-79
2023/10/26 02:17:02;;;;;;;14.30;7.72;;;;;;;15.64;76.42;98840.97;5092690;28;20027;-79
2023/10/26 02:19:28;;;;;;;24.65;8.38;;;;;;;15.70;76.62;98841.50;5086108;28;20040;-80
2023/10/26 02:21:53;;;;;;;22.75;8.30;;;;;;;15.48;76.70;98808.97;5072387;28;20115;-80
2023/10/26 02:24:19;;;;;;;34.17;10.85;;;;;;;15.65;76.62;98827.59;5071728;28;20039;-80
2023/10/26 02:26:44;;;;;;;16.42;7.47;;;;;;;15.45;76.49;98809.97;5072225;28;20028;-80
2023/10/26 02:29:10;;;;;;;24.20;9.00;;;;;;;15.25;76.64;98810.09;5077815;28;20020;-80
2023/10/26 02:31:35;;;;;;;20.90;8.75;;;;;;;15.17;74.33;98824.59;5089703;28;20111;-79
2023/10/26 02:34:00;;;;;;;;;;;;;;;15.18;74.81;98862.63;5092376;28;20024;-80
2023/10/26 02:36:26;;;;;;;24.98;8.82;;;;;;;14.91;76.10;98847.06;5091917;28;20361;-80
2023/10/26 02:38:51;;;;;;;17.35;7.95;;;;;;;15.00;76.46;98851.94;5091791;28;20020;-80
2023/10/26 02:41:17;;;;;;;17.40;8.43;;;;;;;14.99;75.58;98823.66;5088183;28;20051;-80
2023/10/26 02:43:42;;;;;;;24.15;10.18;;;;;;;15.13;75.80;98830.13;5092101;28;20414;-79
2023/10/26 02:46:09;;;;;;;23.08;8.88;;;;;;;15.18;76.22;98817.47;5091478;28;20471;-79
2023/10/26 02:48:34;;;;;;;30.13;11.32;;;;;;;15.43;77.19;98834.88;5091995;28;20177;-80
2023/10/26 02:51:00;;;;;;;24.73;9.82;;;;;;;15.36;77.71;98821.03;5089486;28;20538;-80
2023/10/26 02:53:26;;;;;;;26.15;12.27;;;;;;;15.38;77.92;98813.84;5091491;28;20027;-80
2023/10/26 02:55:52;;;;;;;24.80;10.45;;;;;;;15.31;79.08;98818.63;5091588;28;20028;-79
2023/10/26 02:58:17;;;;;;;20.50;9.50;;;;;;;15.17;79.55;98806.00;5090924;28;20055;-79
2023/10/26 03:00:43;;;;;;;20.23;8.38;;;;;;;15.38;79.44;98845.75;5091530;28;20031;-79
2023/10/26 03:03:08;;;;;;;20.45;9.88;;;;;;;15.39;80.00;98840.34;5089553;28;20118;-79
2023/10/26 03:05:35;;;;;;;;;;;;;;;15.46;80.09;98843.59;5078388;28;20520;-79
2023/10/26 03:08:01;;;;;;;12.15;7.55;;;;;;;15.35;79.25;98808.69;5070796;28;19919;-79
2023/10/26 03:10:27;;;;;;;25.20;10.13;;;;;;;15.35;79.23;98793.63;5071344;28;20036;-79
2023/10/26 03:12:52;;;;;;;16.95;8.82;;;;;;;15.48;79.16;98823.09;5071779;28;20029;-80
2023/10/26 03:15:18;;;;;;;25.88;11.38;;;;;;;15.31;78.94;98778.75;5071453;28;20036;-81
2023/10/26 03:17:44;;;;;;;29.90;10.35;;;;;;;15.58;77.67;98803.13;5082244;28;20028;-79
2023/10/26 03:20:10;;;;;;;14.50;7.28;;;;;;;15.40;78.44;98810.19;5090883;28;20093;-80
2023/10/26 03:22:36;;;;;;;17.33;9.45;;;;;;;15.32;78.03;98814.16;5090882;28;20028;-80
2023/10/26 03:25:02;;;;;;;24.52;9.27;;;;;;;15.24;78.90;98811.88;5089137;28;20478;-79
2023/10/26 03:27:28;;;;;;;28.05;9.35;;;;;;;15.48;78.53;98833.75;5090455;28;20028;-80
2023/10/26 03:29:54;;;;;;;31.65;10.77;;;;;;;15.40;78.03;98823.47;5090274;28;20039;-79
2023/10/26 03:32:20;;;;;;;22.52;9.30;;;;;;;15.41;78.19;98819.03;5074607;28;20477;-79
2023/10/26 03:34:45;;;;;;;26.52;9.88;;;;;;;15.40;78.45;98818.16;5070898;28;20029;-81
2023/10/26 03:37:11;;;;;;;;;;;;;;;15.62;77.63;98832.22;5068850;28;20024;-82
2023/10/26 03:39:36;;;;;;;19.40;10.10;;;;;;;15.68;77.21;98818.63;5069034;28;19923;-82
2023/10/26 03:42:02;;;;;;;15.88;10.65;;;;;;;15.38;77.90;98772.22;5082297;28;20039;-81
2023/10/26 03:44:28;;;;;;;25.02;10.65;;;;;;;15.46;77.59;98763.88;5088375;28;20032;-81
2023/10/26 03:46:53;;;;;;;;;;;;;;;15.42;78.47;98810.13;5089520;28;20028;-82
2023/10/26 03:49:20;;;;;;;20.30;8.25;;;;;;;15.44;78.40;98818.88;5089510;28;19912;-81
2023/10/26 03:51:48;;;;;;;22.75;10.20;;;;;;;15.36;78.18;98791.81;5071956;28;20036;-80
2023/10/26 03:54:13;;;;;;;21.25;9.32;;;;;;;15.51;78.38;98808.81;5077799;28;20028;-80
2023/10/26 03:56:39;;;;;;;19.85;8.00;;;;;;;15.53;77.96;98802.47;5077929;28;20040;-83
2023/10/26 03:59:04;;;;;;;;;;;;;;;15.48;77.85;98804.50;5083699;28;20056;-79
2023/10/26 04:01:30;;;;;;;11.55;6.68;;;;;;;15.20;78.05;98778.44;5087522;28;19932;-81
2023/10/26 04:03:55;;;;;;;18.35;9.02;;;;;;;15.29;78.17;98777.97;5078960;28;20119;-81
2023/10/26 04:06:20;;;;;;;21.67;7.68;;;;;;;15.07;78.41;98729.47;5068333;28;20032;-81
2023/10/26 04:08:46;;;;;;;18.33;8.60;;;;;;;15.43;78.11;98781.75;5069222;28;20029;-80
2023/10/26 04:11:18;;;;;;;18.02;8.32;;;;;;;15.38;78.29;98787.28;5070414;28;20024;-80
2023/10/26 04:13:44;;;;;;;23.98;9.27;;;;;;;15.43;78.46;98789.72;5069934;28;20082;-81
2023/10/26 04:16:09;;;;;;;28.50;9.38;;;;;;;15.26;78.19;98787.88;5069977;28;20033;-80
2023/10/26 04:18:35;;;;;;;23.90;8.52;;;;;;;15.09;78.15;98744.41;5069892;28;20414;-80
2023/10/26 04:21:00;;;;;;;24.92;8.95;;;;;;;15.22;78.38;98771.25;5070181;28;20025;-80
2023/10/26 04:23:27;;;;;;;17.88;8.07;;;;;;;15.33;78.26;98798.13;5071081;28;20029;-81
2023/10/26 04:25:53;;;;;;;17.67;8.27;;;;;;;15.03;78.34;98750.88;5070339;28;20506;-79
2023/10/26 04:28:18;;;;;;;14.20;6.82;;;;;;;15.12;78.77;98780.56;5069957;28;20101;-80
2023/10/26 04:30:46;;;;;;;18.33;6.60;;;;;;;15.33;78.08;98816.72;5086752;28;20450;-79
2023/10/26 04:33:12;;;;;;;25.17;10.00;;;;;;;15.26;78.46;98801.16;5088285;28;20071;-79
2023/10/26 04:35:41;;;;;;;19.75;9.50;;;;;;;15.35;78.80;98812.22;5081529;28;20054;-80
2023/10/26 04:38:08;;;;;;;19.95;8.77;;;;;;;15.36;78.88;98799.78;5089828;28;20459;-80
2023/10/26 04:40:34;;;;;;;12.57;8.52;;;;;;;15.29;79.11;98777.97;5089505;28;20481;-79
2023/10/26 04:43:00;;;;;;;14.98;8.73;;;;;;;15.35;79.25;98777.69;5089832;28;20134;-79
2023/10/26 04:45:25;;;;;;;15.57;8.20;;;;;;;15.37;79.77;98766.97;5089266;28;20414;-80
2023/10/26 04:47:51;;;;;;;19.88;9.32;;;;;;;15.48;79.25;98761.97;5073223;28;20178;-81
2023/10/26 04:50:16;;;;;;;19.45;11.80;;;;;;;15.70;79.10;98793.66;5068678;28;20029;-81
2023/10/26 04:52:42;;;;;;;16.80;10.50;;;;;;;15.47;79.49;98754.09;5068400;28;20036;-81
2023/10/26 04:55:07;;;;;;;22.40;11.50;;;;;;;15.48;79.80;98764.63;5069576;28;20589;-80
2023/10/26 04:57:34;;;;;;;25.20;11.10;;;;;;;15.47;79.76;98784.16;5065630;28;20123;-79
2023/10/26 04:59:59;;;;;;;21.40;12.20;;;;;;;15.45;79.60;98761.28;5066365;28;20044;-80
2023/10/26 05:02:25;;;;;;;16.33;8.60;;;;;;;15.17;80.70;98730.75;5066894;28;20456;-80
2023/10/26 05:04:50;;;;;;;22.02;9.68;;;;;;;15.51;81.32;98803.50;5070228;28;20021;-82
2023/10/26 05:07:16;;;;;;;19.85;13.68;;;;;;;15.62;80.59;98779.91;5070357;28;20040;-80
2023/10/26 05:09:41;;;;;;;25.30;11.13;;;;;;;15.53;80.56;98769.72;5070779;28;20483;-80
2023/10/26 05:12:07;;;;;;;27.58;15.45;;;;;;;15.64;81.09;98801.94;5072792;28;20055;-81
2023/10/26 05:14:32;;;;;;;26.00;13.45;;;;;;;15.68;80.52;98778.75;5072511;28;20047;-79
2023/10/26 05:16:58;;;;;;;33.78;11.45;;;;;;;15.56;80.86;98777.53;5072420;28;20465;-79
2023/10/26 05:19:23;;;;;;;26.58;11.77;;;;;;;15.61;81.55;98811.88;5071590;28;20029;-80
2023/10/26 05:21:49;;;;;;;29.77;11.25;;;;;;;15.39;81.78;98791.66;5073053;28;20453;-79
2023/10/26 05:24:14;;;;;;;22.10;11.63;;;;;;;15.40;82.92;98801.38;5073661;28;20033;-79
2023/10/26 05:26:40;;;;;;;22.58;11.25;;;;;;;15.57;82.35;98800.53;5072531;28;20029;-81
2023/10/26 05:29:05;;;;;;;23.95;10.95;;;;;;;15.90;81.95;98815.75;5072822;28;20044;-79
2023/10/26 05:31:31;;;;;;;26.95;12.10;;;;;;;15.70;82.55;98809.59;5071611;28;20044;-78
2023/10/26 05:33:56;;;;;;;30.63;12.82;;;;;;;15.80;81.48;98786.13;5072016;28;20458;-81
2023/10/26 05:36:21;;;;;;;27.70;11.32;;;;;;;16.04;81.53;98796.44;5072116;28;20024;-81
2023/10/26 05:38:47;;;;;;;;;;;;;;;16.19;81.27;98816.03;5072225;28;20031;-79
2023/10/26 05:41:12;;;;;;;28.25;11.15;;;;;;;16.01;80.96;98783.28;5072862;28;20348;-79
2023/10/26 05:43:38;;;;;;;23.40;11.00;;;;;;;16.30;80.27;98832.31;5072326;28;20479;-80
2023/10/26 05:46:04;;;;;;;24.88;11.52;;;;;;;16.19;80.60;98847.97;5072333;28;20028;-81
2023/10/26 05:48:31;;;;;;;20.30;11.93;;;;;;;16.06;80.96;98831.78;5069696;28;20056;-80
2023/10/26 05:50:57;;;;;;;19.98;11.55;;;;;;;16.15;80.98;98847.28;5086103;28;20032;-81
2023/10/26 05:53:22;;;;;;;28.02;11.30;;;;;;;15.94;80.33;98788.03;5069557;28;20025;-81
2023/10/26 05:56:00;;;;;;;28.98;10.95;;;;;;;16.26;80.32;98842.25;5069793;28;20066;-81
2023/10/26 05:58:26;;;;;;;19.67;11.93;;;;;;;16.16;81.89;98877.38;5084128;28;20464;-80
2023/10/26 06:00:52;;;;;;;30.20;12.50;;;;;;;16.01;82.68;98866.59;5069674;28;20029;-80
2023/10/26 06:03:17;;;;;;;31.88;11.02;;;;;;;16.10;82.79;98850.16;5069383;28;20028;-80
2023/10/26 06:05:43;;;;;;;37.13;13.50;;;;;;;16.51;81.46;98883.56;5068432;28;20032;-81
2023/10/26 06:08:09;;;;;;;41.33;11.57;;;;;;;16.44;81.95;98880.38;5068876;28;20032;-81
2023/10/26 06:10:34;;;;;;;28.48;12.98;;;;;;;16.44;82.92;98899.00;5068683;28;20036;-80
2023/10/26 06:13:00;;;;;;;25.38;11.13;;;;;;;16.37;82.78;98859.47;5069547;28;20032;-81
2023/10/26 06:15:25;;;;;;;40.97;11.85;;;;;;;16.67;82.70;98886.28;5068465;28;20050;-80
2023/10/26 06:17:50;;;;;;;38.80;11.32;;;;;;;16.54;82.70;98838.13;5069310;28;20111;-83
2023/10/26 06:20:16;;;;;;;29.63;12.90;;;;;;;16.82;82.12;98884.59;5069264;28;20098;-80
2023/10/26 06:22:42;;;;;;;25.23;12.20;;;;;;;16.78;81.80;98838.63;5069280;28;20048;-81
2023/10/26 06:25:08;;;;;;;27.27;11.10;;;;;;;16.54;81.71;98808.84;5069303;28;20017;-80
2023/10/26 06:27:34;;;;;;;31.98;13.00;;;;;;;16.80;83.02;98876.69;5071276;28;20109;-80
2023/10/26 06:29:59;;;;;;;23.73;12.88;;;;;;;16.87;83.73;98898.59;5071556;28;20028;-81
2023/10/26 06:32:25;;;;;;;21.00;9.98;;;;;;;16.68;83.70;98868.50;5071217;28;20032;-81
2023/10/26 06:34:50;;;;;;;30.40;12.32;;;;;;;16.71;84.05;98898.47;5071847;28;20111;-84
2023/10/26 06:37:16;;;;;;;22.45;12.07;;;;;;;17.10;83.75;98913.31;5071495;28;20033;-81
2023/10/26 06:39:42;;;;;;;30.15;11.90;;;;;;;17.14;83.43;98901.53;5071139;28;20033;-80
2023/10/26 06:42:07;;;;;;;46.30;17.00;;;;;;;17.05;83.68;98904.69;5069420;28;20050;-79
2023/10/26 06:44:33;;;;;;;58.85;31.45;;;;;;;17.19;84.14;98906.63;5068620;28;20067;-79
2023/10/26 06:46:58;;;;;;;40.03;18.52;;;;;;;17.22;83.45;98914.44;5070292;28;20044;-80
2023/10/26 06:49:24;;;;;;;50.95;15.90;;;;;;;17.33;82.66;98889.88;5070568;28;20105;-80
2023/10/26 06:51:49;;;;;;;29.58;13.52;;;;;;;17.48;81.82;98888.16;5071155;28;20028;-80
2023/10/26 06:54:15;;;;;;;31.80;13.55;;;;;;;17.61;81.69;98889.19;5070515;28;20476;-81
2023/10/26 06:56:42;;;;;;;50.25;12.45;;;;;;;17.59;81.39;98874.22;5070611;28;20037;-81
2023/10/26 06:59:07;;;;;;;23.95;11.80;;;;;;;17.68;81.40;98885.22;5071095;28;20052;-81
2023/10/26 07:01:33;;;;;;;25.00;13.18;;;;;;;17.65;81.67;98876.53;5070731;28;20094;-82
2023/10/26 07:03:59;;;;;;;25.02;12.52;;;;;;;17.63;82.58;98879.28;5070535;28;20040;-83
2023/10/26 07:06:26;;;;;;;45.85;12.85;;;;;;;17.85;81.76;98892.25;5071314;28;20094;-82
2023/10/26 07:08:52;;;;;;;30.23;14.18;;;;;;;17.54;81.38;98847.81;5070558;28;20058;-81
2023/10/26 07:11:17;;;;;;;33.47;13.77;;;;;;;17.78;80.71;98874.00;5069204;28;20037;-79
2023/10/26 07:13:45;;;;;;;32.47;11.95;;;;;;;18.11;80.00;98919.25;5070190;28;20035;-83
2023/10/26 07:16:14;;;;;;;27.77;12.23;;;;;;;18.07;80.55;98918.59;5069219;28;20051;-83
2023/10/26 07:18:40;;;;;;;31.20;12.70;;;;;;;18.33;79.46;98910.84;5070324;28;20035;-80
2023/10/26 07:21:05;;;;;;;38.65;15.38;;;;;;;18.35;79.31;98898.28;5070681;28;20032;-83
2023/10/26 07:23:32;;;;;;;31.90;15.98;;;;;;;18.22;79.16;98862.59;5070720;28;20490;-83
2023/10/26 07:25:58;;;;;;;31.58;13.30;;;;;;;18.44;78.65;98888.84;5069154;28;20406;-82
2023/10/26 07:28:23;;;;;;;31.88;12.75;;;;;;;18.43;78.59;98889.81;5070351;28;20020;-82
2023/10/26 07:30:51;;;;;;;27.60;12.82;;;;;;;18.31;77.99;98843.34;5070841;28;20363;-81
2023/10/26 07:33:19;;;;;;;35.08;15.65;;;;;;;18.52;77.65;98880.38;5068788;28;20063;-82
2023/10/26 07:35:52;;;;;;;35.22;13.13;;;;;;;18.63;77.63;98883.25;5069896;28;20111;-81
2023/10/26 07:38:18;;;;;;;35.30;14.90;;;;;;;18.65;77.91;98891.19;5070625;28;20047;-82
2023/10/26 07:40:51;;;;;;;27.63;15.98;;;;;;;18.48;77.89;98866.34;5068926;28;20188;-85
2023/10/26 07:43:17;;;;;;;26.58;14.18;;;;;;;18.33;78.85;98849.44;5070497;28;20032;-84
2023/10/26 07:45:42;;;;;;;38.20;13.90;;;;;;;18.49;78.39;98825.34;5068720;28;20489;-82
2023/10/26 07:48:08;;;;;;;34.65;16.90;;;;;;;19.02;78.33;98872.91;5069222;28;20538;-84
2023/10/26 07:50:33;;;;;;;32.10;15.90;;;;;;;19.33;76.75;98880.69;5066833;28;20067;-80
2023/10/26 07:52:59;;;;;;;28.55;13.75;;;;;;;19.46;74.76;98834.44;5070265;28;20376;-80
2023/10/26 07:55:25;;;;;;;34.00;16.58;;;;;;;19.60;75.24;98847.78;5069960;28;20158;-82
2023/10/26 07:57:50;;;;;;;17.88;12.82;;;;;;;19.74;73.87;98836.16;5069787;28;20521;-87
2023/10/26 08:00:16;;;;;;;23.73;11.73;;;;;;;19.98;72.70;98849.72;5069970;28;20033;-80
2023/10/26 08:02:42;;;;;;;32.47;14.88;;;;;;;19.75;73.16;98837.84;5070022;28;20383;-81
2023/10/26 08:05:08;;;;;;;30.88;15.52;;;;;;;20.08;71.96;98859.81;5070332;28;20025;-81
2023/10/26 08:07:34;;;;;;;26.75;13.07;;;;;;;19.74;72.57;98841.50;5068503;28;20036;-82
2023/10/26 08:10:00;;;;;;;32.70;13.65;;;;;;;19.94;72.55;98858.06;5069038;28;20039;-81
2023/10/26 08:12:25;;;;;;;42.88;14.70;;;;;;;20.17;71.84;98884.16;5068509;28;20028;-81
2023/10/26 08:14:51;;;;;;;20.58;12.77;;;;;;;20.09;72.16;98874.94;5069715;28;20040;-84
2023/10/26 08:17:17;;;;;;;25.48;12.85;;;;;;;20.50;71.63;98874.78;5069993;28;20490;-86
2023/10/26 08:19:42;;;;;;;24.25;11.48;;;;;;;20.42;70.94;98890.53;5069708;28;20121;-83
2023/10/26 08:22:10;;;;;;;33.15;12.95;;;;;;;20.12;71.74;98869.38;5069952;28;20487;-81
2023/10/26 08:24:36;;;;;;;28.75;12.13;;;;;;;20.34;71.17;98880.34;5069254;28;20138;-83
2023/10/26 08:27:01;;;;;;;33.10;11.15;;;;;;;20.76;70.38;98872.16;5069434;28;20058;-82
2023/10/26 08:29:28;;;;;;;28.38;10.38;;;;;;;20.68;68.96;98861.09;5069541;28;20035;-82
2023/10/26 08:31:54;;;;;;;24.05;9.45;;;;;;;20.91;69.75;98887.16;5070355;28;20043;-84
2023/10/26 08:34:20;;;;;;;29.05;10.80;;;;;;;20.81;68.81;98899.47;5068859;28;20471;-81
2023/10/26 08:36:46;;;;;;;20.75;9.43;;;;;;;20.85;69.12;98881.34;5069181;28;20028;-83
2023/10/26 08:39:12;;;;;;;18.20;10.77;;;;;;;20.94;69.28;98883.38;5071730;28;20376;-84
2023/10/26 08:41:38;;;;;;;35.20;10.00;;;;;;;21.20;68.27;98896.78;5072508;28;20073;-82
2023/10/26 08:44:04;;;;;;;24.42;10.10;;;;;;;20.87;68.51;98872.25;5073040;28;20024;-85
2023/10/26 08:46:29;;;;;;;27.38;13.27;;;;;;;20.78;68.98;98886.28;5072875;28;20192;-81
2023/10/26 08:48:57;;;;;;;23.63;13.95;;;;;;;20.79;70.34;98881.78;5072062;28;20525;-80
2023/10/26 08:51:22;;;;;;;20.48;11.32;;;;;;;20.66;70.58;98865.72;5072109;28;20032;-81
2023/10/26 08:53:49;;;;;;;29.02;10.73;;;;;;;20.75;70.31;98873.97;5072585;28;20029;-83
2023/10/26 08:56:20;;;;;;;21.17;10.07;;;;;;;20.55;69.84;98842.31;5070868;28;20034;-81
2023/10/26 08:58:46;;;;;;;23.05;9.23;;;;;;;20.71;69.74;98864.44;5059989;28;20463;-83
2023/10/26 09:01:12;;;;;;;19.25;10.55;;;;;;;20.81;70.31;98882.56;5071703;28;20506;-80
2023/10/26 09:03:37;;;;;;;28.40;10.52;;;;;;;20.91;69.84;98879.13;5071558;28;20028;-81
2023/10/26 09:06:03;;;;;;;26.88;8.63;;;;;;;21.03;69.26;98872.00;5071665;28;20553;-81
2023/10/26 09:08:30;;;;;;;21.58;9.05;;;;;;;20.87;68.68;98850.81;5072112;28;20511;-82
2023/10/26 09:10:56;;;;;;;17.08;7.88;;;;;;;20.87;69.04;98866.03;5070012;28;20029;-82
2023/10/26 09:13:24;;;;;;;30.23;9.85;;;;;;;21.02;68.37;98856.91;5069937;28;20028;-88
2023/10/26 09:15:51;;;;;;;22.05;8.98;;;;;;;21.27;67.79;98858.66;5068439;28;20047;-84
2023/10/26 09:18:17;;;;;;;20.83;8.73;;;;;;;21.40;67.62;98881.91;5069478;28;20111;-80
2023/10/26 09:21:03;;;;;;;19.95;8.25;;;;;;;21.45;68.15;98855.59;5069909;28;20044;-81
2023/10/26 09:23:31;;;;;;;16.77;8.77;;;;;;;21.45;66.87;98796.59;5070130;28;20089;-81
2023/10/26 09:25:58;;;;;;;21.35;9.20;;;;;;;21.82;66.63;98836.81;5071800;28;20063;-83
2023/10/26 09:28:24;;;;;;;21.08;10.00;;;;;;;21.86;66.37;98832.94;5071197;28;20081;-83
2023/10/26 09:30:50;;;;;;;27.08;11.00;;;;;;;22.02;65.60;98815.66;5072581;28;20032;-84
2023/10/26 09:33:25;;;;;;;25.23;8.07;;;;;;;21.92;64.68;98802.94;5071207;28;20039;-85
2023/10/26 09:35:51;;;;;;;14.98;7.50;;;;;;;21.96;64.77;98796.34;5071658;28;20090;-83
2023/10/26 09:38:21;;;;;;;39.13;9.48;;;;;;;22.15;64.02;98795.81;5071386;28;20056;-82
2023/10/26 09:40:49;;;;;;;23.95;9.85;;;;;;;22.10;64.70;98823.97;5068578;28;20079;-84
2023/10/26 09:43:14;;;;;;;27.98;8.82;;;;;;;22.37;64.64;98836.28;5069108;28;20509;-83
2023/10/26 09:45:41;;;;;;;27.85;8.55;;;;;;;22.11;64.24;98764.78;5064998;28;20147;-82
2023/10/26 09:48:07;;;;;;;17.42;7.20;;;;;;;22.26;63.48;98794.97;5063605;28;20041;-86
2023/10/26 09:50:39;;;;;;;19.17;9.13;;;;;;;22.31;64.70;98800.03;5068379;28;20032;-83
2023/10/26 09:53:06;;;;;;;28.98;8.00;;;;;;;22.42;63.54;98783.91;5071390;28;20502;-89
2023/10/26 09:55:32;;;;;;;27.38;7.75;;;;;;;22.38;64.06;98811.13;5065581;28;20531;-82
2023/10/26 09:58:03;;;;;;;19.45;7.28;;;;;;;22.16;63.96;98777.84;5067066;28;20126;-82
2023/10/26 10:00:34;;;;;;;20.52;7.88;;;;;;;22.10;64.36;98799.81;5070412;28;20402;-83
2023/10/26 10:03:16;;;;;;;27.63;9.48;;;;;;;22.13;64.27;98759.28;5070730;28;20056;-84
2023/10/26 10:05:44;;;;;;;27.70;7.30;;;;;;;22.28;63.77;98784.94;5069265;28;20097;-79
2023/10/26 10:08:10;;;;;;;23.20;7.07;;;;;;;22.38;63.64;98789.63;5070236;28;20450;-80
2023/10/26 10:10:36;;;;;;;27.02;7.75;;;;;;;22.58;62.78;98790.75;5068617;28;20040;-81
2023/10/26 10:13:01;;;;;;;24.58;6.68;;;;;;;22.33;63.52;98761.28;5067917;28;20063;-81
2023/10/26 10:15:38;;;;;;;23.00;8.07;;;;;;;22.56;62.55;98776.59;5068031;28;20456;-82
2023/10/26 10:18:06;;;;;;;15.90;6.50;;;;;;;22.37;63.64;98766.44;5068821;28;20048;-81
2023/10/26 10:20:36;;;;;;;28.80;8.23;;;;;;;22.63;62.30;98759.00;5068472;28;20120;-82
2023/10/26 10:23:03;;;;;;;29.73;8.85;;;;;;;22.63;62.42;98751.81;5067746;28;20037;-81
2023/10/26 10:25:47;;;;;;;20.33;7.88;;;;;;;22.73;61.99;98743.00;5067640;28;20036;-82
2023/10/26 10:28:12;;;;;;;30.93;7.83;;;;;;;22.74;61.74;98728.56;5067804;28;20115;-82
2023/10/26 10:30:59;;;;;;;21.58;7.72;;;;;;;22.67;61.06;98701.34;5067726;28;20545;-84
2023/10/26 10:33:27;;;;;;;28.23;7.85;;;;;;;22.73;62.11;98725.03;5068066;28;20118;-82
2023/10/26 10:36:04;;;;;;;20.42;7.13;;;;;;;22.64;61.27;98699.75;5083074;28;20572;-80
2023/10/26 10:38:30;;;;;;;21.67;6.85;;;;;;;22.66;61.96;98713.06;5066921;28;20032;-80
2023/10/26 10:40:55;;;;;;;18.30;8.48;;;;;;;22.72;61.17;98696.44;5068184;28;20134;-80
2023/10/26 10:43:37;;;;;;;20.83;7.18;;;;;;;23.05;59.90;98714.34;5068656;28;20040;-80
2023/10/26 10:46:26;;;;;;;18.20;8.18;;;;;;;22.78;59.75;98695.94;5069316;28;20040;-80
2023/10/26 10:48:59;;;;;;;18.75;6.90;;;;;;;22.93;59.35;98704.59;5069455;28;20101;-82
2023/10/26 10:51:33;;;;;;;21.40;8.98;;;;;;;23.00;59.78;98700.44;5069687;28;20472;-82
2023/10/26 10:53:59;;;;;;;16.67;8.00;;;;;;;22.97;58.56;98680.97;5070556;28;20037;-81
2023/10/26 10:56:25;;;;;;;20.55;7.28;;;;;;;22.94;58.70;98678.53;5064517;28;20446;-81
2023/10/26 10:58:52;;;;;;;21.40;7.70;;;;;;;22.71;58.63;98649.03;5062885;28;20058;-82
2023/10/26 11:01:21;;;;;;;14.88;7.95;;;;;;;22.90;58.85;98656.44;5069794;28;20032;-82
2023/10/26 11:03:47;;;;;;;19.90;7.20;;;;;;;22.80;57.92;98631.28;5069077;28;20699;-82
2023/10/26 11:06:17;;;;;;;19.55;7.20;;;;;;;23.06;58.44;98670.34;5069766;28;20490;-82
2023/10/26 11:08:43;;;;;;;19.63;6.45;;;;;;;23.40;56.77;98661.28;5070282;28;20056;-82
2023/10/26 11:11:08;;;;;;;17.52;6.47;;;;;;;23.55;56.14;98657.28;5069985;28;20063;-82
2023/10/26 11:13:34;;;;;;;11.82;6.95;;;;;;;23.33;56.47;98650.19;5068186;28;20132;-81
2023/10/26 11:15:59;;;;;;;15.60;6.43;;;;;;;23.58;57.10;98658.88;5069543;28;20029;-81
2023/10/26 11:18:25;;;;;;;14.98;6.93;;;;;;;23.56;56.51;98637.47;5068414;28;20028;-81
2023/10/26 11:20:51;;;;;;;22.55;6.45;;;;;;;23.53;56.56;98640.44;5067252;28;20040;-82